createdAt,value
2023-02-22T00:00:46.229Z,45.23
2023-02-22T00:03:18.986Z,39.73
2023-02-22T00:05:47.214Z,14.57
2023-02-22T00:08:16.021Z,12.53
2023-02-22T00:10:42.960Z,12.87
2023-02-22T00:13:13.231Z,13.33
2023-02-22T00:15:44.354Z,12.30
2023-02-22T00:18:14.694Z,13.33
2023-02-22T00:20:41.785Z,14.23
2023-02-22T00:23:19.024Z,12.60
2023-02-22T00:25:46.999Z,11.80
2023-02-22T00:28:15.229Z,13.03
2023-02-22T00:30:44.908Z,12.40
2023-02-22T00:33:13.380Z,13.83
2023-02-22T00:35:40.223Z,13.20
2023-02-22T00:38:07.589Z,14.03
2023-02-22T00:40:35.452Z,12.60
2023-02-22T00:43:04.611Z,13.90
2023-02-22T00:45:32.820Z,12.77
2023-02-22T00:48:00.487Z,12.77
2023-02-22T00:50:29.585Z,12.90
2023-02-22T00:52:57.815Z,13.53
2023-02-22T00:55:28.292Z,12.83
2023-02-22T00:57:55.667Z,12.80
2023-02-22T01:00:25.685Z,13.17
2023-02-22T01:02:52.435Z,13.40
2023-02-22T01:05:24.151Z,13.07
2023-02-22T01:07:51.448Z,13.63
2023-02-22T01:10:21.005Z,13.20
2023-02-22T01:12:48.449Z,13.80
2023-02-22T01:15:16.868Z,12.97
2023-02-22T01:17:44.056Z,13.83
2023-02-22T01:20:14.777Z,13.87
2023-02-22T01:22:49.873Z,13.43
2023-02-22T01:25:19.881Z,13.83
2023-02-22T01:27:46.975Z,13.20
2023-02-22T01:30:15.084Z,13.03
2023-02-22T01:32:42.713Z,14.43
2023-02-22T01:35:13.734Z,14.37
2023-02-22T01:37:42.084Z,14.07
2023-02-22T01:40:11.190Z,14.00
2023-02-22T01:42:37.918Z,13.77
2023-02-22T01:45:35.267Z,14.30
2023-02-22T01:48:08.675Z,13.23
2023-02-22T01:50:42.198Z,12.30
2023-02-22T01:53:13.909Z,11.40
2023-02-22T01:55:41.118Z,11.50
2023-02-22T01:58:09.006Z,12.57
2023-02-22T02:00:36.357Z,11.83
2023-02-22T02:03:14.975Z,11.80
2023-02-22T02:05:42.777Z,12.23
2023-02-22T02:08:36.154Z,12.20
2023-02-22T02:11:08.654Z,11.63
2023-02-22T02:13:36.853Z,12.43
2023-02-22T02:16:04.065Z,11.80
2023-02-22T02:18:32.638Z,11.87
2023-02-22T02:21:38.439Z,11.63
2023-02-22T02:24:16.679Z,11.97
2023-02-22T02:26:49.262Z,12.90
2023-02-22T02:29:55.377Z,12.10
2023-02-22T02:32:28.067Z,13.27
2023-02-22T02:35:05.266Z,13.57
2023-02-22T02:37:44.021Z,13.27
2023-02-22T02:40:19.752Z,13.77
2023-02-22T02:43:14.060Z,13.70
2023-02-22T02:46:10.069Z,12.80
2023-02-22T02:48:41.605Z,13.27
2023-02-22T02:51:10.472Z,12.93
2023-02-22T02:53:40.631Z,13.47
2023-02-22T02:56:07.633Z,13.20
2023-02-22T02:58:42.652Z,12.97
2023-02-22T03:01:11.514Z,12.87
2023-02-22T03:04:10.449Z,13.17
2023-02-22T03:07:04.626Z,12.17
2023-02-22T03:09:49.153Z,13.17
2023-02-22T03:12:38.571Z,12.57
2023-02-22T03:15:29.640Z,12.33
2023-02-22T03:18:08.106Z,12.17
2023-02-22T03:20:50.260Z,11.23
2023-02-22T03:23:27.046Z,11.87
2023-02-22T03:26:12.007Z,11.87
2023-02-22T03:28:42.072Z,12.10
2023-02-22T03:31:18.155Z,11.80
2023-02-22T03:33:59.644Z,12.47
2023-02-22T03:36:32.544Z,12.10
2023-02-22T03:39:04.230Z,12.40
2023-02-22T03:41:31.924Z,12.90
2023-02-22T03:44:06.240Z,12.70
2023-02-22T03:46:35.264Z,12.70
2023-02-22T03:49:14.515Z,12.27
2023-02-22T03:51:41.409Z,11.93
2023-02-22T03:54:09.389Z,12.97
2023-02-22T03:56:50.044Z,12.80
2023-02-22T03:59:17.242Z,14.03
2023-02-22T04:01:43.960Z,13.83
2023-02-22T04:04:10.716Z,12.70
2023-02-22T04:06:37.700Z,13.97
2023-02-22T04:09:04.600Z,13.30
2023-02-22T04:11:31.340Z,14.87
2023-02-22T04:13:58.417Z,14.13
2023-02-22T04:16:25.149Z,14.93
2023-02-22T04:18:51.924Z,15.70
2023-02-22T04:21:19.028Z,15.37
2023-02-22T04:23:45.846Z,15.60
2023-02-22T04:26:13.026Z,17.37
2023-02-22T04:28:39.801Z,17.67
2023-02-22T04:31:06.674Z,17.93
2023-02-22T04:33:33.610Z,17.23
2023-02-22T04:36:00.316Z,19.73
2023-02-22T04:38:27.169Z,17.90
2023-02-22T04:40:55.935Z,17.07
2023-02-22T04:43:22.787Z,17.13
2023-02-22T04:45:49.568Z,17.87
2023-02-22T04:48:16.626Z,17.53
2023-02-22T04:50:43.345Z,17.87
2023-02-22T04:53:11.075Z,17.50
2023-02-22T04:55:37.758Z,17.47
2023-02-22T04:58:04.543Z,17.57
2023-02-22T05:00:31.246Z,18.10
2023-02-22T05:02:58.036Z,17.50
2023-02-22T05:05:24.966Z,17.57
2023-02-22T05:07:51.728Z,17.70
2023-02-22T05:10:19.014Z,17.37
2023-02-22T05:12:45.920Z,18.20
2023-02-22T05:15:17.218Z,18.17
2023-02-22T05:17:43.938Z,17.80
2023-02-22T05:20:23.321Z,17.30
2023-02-22T05:22:51.824Z,17.43
2023-02-22T05:25:20.348Z,16.40
2023-02-22T05:27:52.721Z,16.90
2023-02-22T05:30:24.341Z,17.13
2023-02-22T05:32:52.102Z,23.77
2023-02-22T05:35:24.281Z,22.73
2023-02-22T05:37:51.293Z,18.23
2023-02-22T05:40:23.851Z,18.90
2023-02-22T05:42:51.181Z,17.67
2023-02-22T05:45:20.138Z,17.40
2023-02-22T05:47:47.491Z,19.10
2023-02-22T05:50:15.158Z,19.67
2023-02-22T05:52:41.877Z,19.27
2023-02-22T05:55:10.263Z,26.70
2023-02-22T05:57:39.180Z,28.00
2023-02-22T06:00:08.237Z,22.90
2023-02-22T06:02:34.978Z,21.67
2023-02-22T06:05:01.663Z,21.63
2023-02-22T06:07:28.374Z,24.37
2023-02-22T06:09:55.145Z,23.90
2023-02-22T06:12:21.868Z,25.67
2023-02-22T06:14:48.549Z,24.30
2023-02-22T06:17:16.116Z,22.90
2023-02-22T06:19:42.812Z,22.33
2023-02-22T06:22:19.859Z,29.13
2023-02-22T06:24:46.610Z,32.97
2023-02-22T06:27:13.384Z,30.07
2023-02-22T06:29:44.405Z,33.63
2023-02-22T06:32:11.278Z,24.03
2023-02-22T06:34:38.120Z,21.10
2023-02-22T06:37:04.826Z,23.17
2023-02-22T06:39:31.542Z,20.30
2023-02-22T06:41:59.904Z,18.20
2023-02-22T06:44:26.657Z,18.87
2023-02-22T06:46:53.430Z,17.43
2023-02-22T06:49:20.897Z,18.80
2023-02-22T06:51:48.105Z,16.97
2023-02-22T06:54:15.031Z,17.17
2023-02-22T06:56:41.830Z,17.23
2023-02-22T06:59:08.624Z,17.10
2023-02-22T07:01:35.994Z,17.43
2023-02-22T07:04:03.463Z,16.07
2023-02-22T07:06:30.226Z,14.13
2023-02-22T07:08:57.033Z,16.97
2023-02-22T07:11:23.826Z,16.97
2023-02-22T07:13:50.650Z,18.83
2023-02-22T07:16:17.439Z,19.83
2023-02-22T07:18:44.235Z,17.47
2023-02-22T07:21:10.956Z,17.17
2023-02-22T07:23:38.303Z,16.30
2023-02-22T07:26:06.426Z,16.50
2023-02-22T07:28:33.215Z,15.80
2023-02-22T07:31:01.371Z,14.77
2023-02-22T07:33:28.228Z,14.03
2023-02-22T07:35:54.991Z,14.83
2023-02-22T07:38:21.683Z,14.67
2023-02-22T07:40:48.576Z,13.50
2023-02-22T07:43:23.508Z,13.77
2023-02-22T07:45:53.914Z,15.13
2023-02-22T07:48:22.891Z,14.90
2023-02-22T07:50:49.812Z,14.90
2023-02-22T07:53:31.698Z,14.83
2023-02-22T07:56:02.666Z,14.63
2023-02-22T07:58:30.652Z,12.77
2023-02-22T08:00:58.011Z,15.13
2023-02-22T08:03:26.493Z,14.27
2023-02-22T08:05:56.093Z,14.30
2023-02-22T08:08:23.314Z,13.83
2023-02-22T08:10:51.234Z,15.93
2023-02-22T08:13:18.897Z,15.27
2023-02-22T08:15:47.180Z,14.37
2023-02-22T08:18:16.281Z,14.10
2023-02-22T08:20:44.358Z,13.43
2023-02-22T08:23:13.087Z,13.57
2023-02-22T08:25:39.851Z,13.33
2023-02-22T08:28:09.637Z,13.27
2023-02-22T08:30:40.083Z,12.83
2023-02-22T08:33:07.461Z,14.20
2023-02-22T08:35:34.560Z,15.23
2023-02-22T08:38:04.183Z,16.33
2023-02-22T08:40:34.578Z,15.73
2023-02-22T08:43:01.737Z,16.10
2023-02-22T08:45:28.919Z,16.40
2023-02-22T08:47:55.926Z,16.17
2023-02-22T08:50:33.687Z,16.47
2023-02-22T08:53:02.005Z,16.37
2023-02-22T08:55:34.095Z,16.77
2023-02-22T08:58:02.957Z,14.00
2023-02-22T09:00:33.137Z,12.50
2023-02-22T09:03:02.036Z,13.47
2023-02-22T09:05:31.335Z,12.80
2023-02-22T09:07:58.646Z,12.30
2023-02-22T09:10:28.684Z,12.63
2023-02-22T09:12:55.906Z,12.43
2023-02-22T09:15:24.999Z,15.57
2023-02-22T09:17:52.668Z,13.87
2023-02-22T09:20:21.328Z,14.13
2023-02-22T09:22:49.043Z,11.73
2023-02-22T09:25:17.704Z,11.93
2023-02-22T09:27:48.879Z,12.97
2023-02-22T09:30:36.425Z,12.77
2023-02-22T09:33:20.417Z,12.30
2023-02-22T09:35:49.835Z,12.17
2023-02-22T09:38:19.496Z,12.43
2023-02-22T09:40:49.889Z,12.50
2023-02-22T09:43:23.681Z,12.30
2023-02-22T09:46:21.390Z,13.23
2023-02-22T09:49:21.298Z,12.20
2023-02-22T09:51:50.616Z,11.47
2023-02-22T09:54:51.883Z,12.23
2023-02-22T09:57:26.794Z,12.30
2023-02-22T10:00:13.277Z,11.63
2023-02-22T10:02:48.944Z,11.73
2023-02-22T10:05:20.062Z,11.53
2023-02-22T10:08:12.738Z,12.27
2023-02-22T10:10:44.770Z,12.47
2023-02-22T10:13:34.789Z,12.73
2023-02-22T10:16:05.223Z,12.33
2023-02-22T10:19:03.119Z,12.97
2023-02-22T10:22:00.957Z,12.93
2023-02-22T10:24:38.434Z,12.40
2023-02-22T10:27:08.476Z,12.13
2023-02-22T10:29:52.340Z,13.03
2023-02-22T10:32:31.416Z,12.70
2023-02-22T10:35:00.205Z,12.70
2023-02-22T10:37:34.642Z,12.67
2023-02-22T10:40:18.751Z,12.40
2023-02-22T10:42:45.554Z,12.87
2023-02-22T10:45:27.258Z,12.80
2023-02-22T10:47:59.019Z,12.33
2023-02-22T10:50:31.853Z,12.37
2023-02-22T10:52:58.645Z,11.50
2023-02-22T10:55:25.543Z,12.03
2023-02-22T10:58:00.388Z,11.37
2023-02-22T11:00:37.303Z,12.13
2023-02-22T11:03:22.475Z,10.70
2023-02-22T11:05:49.955Z,10.97
2023-02-22T11:08:16.693Z,10.57
2023-02-22T11:10:43.804Z,10.93
2023-02-22T11:13:18.869Z,10.77
2023-02-22T11:15:45.729Z,9.90
2023-02-22T11:18:31.313Z,9.77
2023-02-22T11:21:14.007Z,10.00
2023-02-22T11:23:44.729Z,9.97
2023-02-22T11:26:15.236Z,9.27
2023-02-22T11:28:49.401Z,9.37
2023-02-22T11:31:22.930Z,9.53
2023-02-22T11:34:03.813Z,9.40
2023-02-22T11:36:40.547Z,8.73
2023-02-22T11:39:25.591Z,8.47
2023-02-22T11:41:52.577Z,11.43
2023-02-22T11:44:24.473Z,7.40
2023-02-22T11:46:55.730Z,6.87
2023-02-22T11:49:46.054Z,7.07
2023-02-22T11:52:34.740Z,6.33
2023-02-22T11:55:41.229Z,5.37
2023-02-22T11:58:29.777Z,5.40
2023-02-22T12:01:39.179Z,5.20
2023-02-22T12:04:27.660Z,5.03
2023-02-22T12:07:20.398Z,5.20
2023-02-22T12:10:02.239Z,5.47
2023-02-22T12:13:03.673Z,4.67
2023-02-22T12:15:42.935Z,4.27
2023-02-22T12:18:17.923Z,4.27
2023-02-22T12:20:55.629Z,4.37
2023-02-22T12:23:30.803Z,4.03
2023-02-22T12:25:58.681Z,3.87
2023-02-22T12:28:38.188Z,3.97
2023-02-22T12:31:29.354Z,4.47
2023-02-22T12:34:09.438Z,3.77
2023-02-22T12:36:43.726Z,4.23
2023-02-22T12:39:29.182Z,3.97
2023-02-22T12:41:57.206Z,4.80
2023-02-22T12:44:33.170Z,4.80
2023-02-22T12:47:02.367Z,4.73
2023-02-22T12:49:56.743Z,4.93
2023-02-22T12:52:35.728Z,4.87
2023-02-22T12:55:18.066Z,5.57
2023-02-22T12:57:52.619Z,5.27
2023-02-22T13:00:48.054Z,4.90
2023-02-22T13:03:38.686Z,5.03
2023-02-22T13:06:11.363Z,5.20
2023-02-22T13:08:47.142Z,5.73
2023-02-22T13:11:35.118Z,5.17
2023-02-22T13:14:13.481Z,5.43
2023-02-22T13:17:04.076Z,5.40
2023-02-22T13:19:49.341Z,4.50
2023-02-22T13:22:28.123Z,4.90
2023-02-22T13:25:16.249Z,4.27
2023-02-22T13:28:21.500Z,4.90
2023-02-22T13:31:11.716Z,3.97
2023-02-22T13:33:57.253Z,4.33
2023-02-22T13:36:38.572Z,4.17
2023-02-22T13:39:27.933Z,4.20
2023-02-22T13:42:28.237Z,4.57
2023-02-22T13:45:19.128Z,4.40
2023-02-22T13:48:11.741Z,4.90
2023-02-22T13:51:07.794Z,5.30
2023-02-22T13:53:47.821Z,5.17
2023-02-22T13:56:15.737Z,5.20
2023-02-22T13:59:00.254Z,5.50
2023-02-22T14:01:46.366Z,5.60
2023-02-22T14:04:27.830Z,5.17
2023-02-22T14:07:02.947Z,5.20
2023-02-22T14:09:49.907Z,4.97
2023-02-22T14:12:28.925Z,4.80
2023-02-22T14:15:27.760Z,4.87
2023-02-22T14:18:03.227Z,5.33
2023-02-22T14:20:40.398Z,5.20
2023-02-22T14:23:33.654Z,4.60
2023-02-22T14:26:37.140Z,5.17
2023-02-22T14:29:09.594Z,5.70
2023-02-22T14:31:45.099Z,5.67
2023-02-22T14:34:30.832Z,6.07
2023-02-22T14:37:07.700Z,5.27
2023-02-22T14:39:39.960Z,5.73
2023-02-22T14:42:27.886Z,6.13
2023-02-22T14:45:09.905Z,5.77
2023-02-22T14:47:40.993Z,5.43
2023-02-22T14:50:16.578Z,5.70
2023-02-22T14:52:46.538Z,4.43
2023-02-22T14:55:29.849Z,4.43
2023-02-22T14:58:10.603Z,4.50
2023-02-22T15:00:37.361Z,4.77
2023-02-22T15:03:04.910Z,4.47
2023-02-22T15:05:40.371Z,4.13
2023-02-22T15:08:09.506Z,3.77
2023-02-22T15:10:45.927Z,4.13
2023-02-22T15:13:23.887Z,4.57
2023-02-22T15:16:01.787Z,4.90
2023-02-22T15:18:41.356Z,4.17
2023-02-22T15:21:13.491Z,4.90
2023-02-22T15:24:02.046Z,4.70
2023-02-22T15:26:37.364Z,4.83
2023-02-22T15:29:11.134Z,4.80
2023-02-22T15:31:40.440Z,4.90
2023-02-22T15:34:27.160Z,4.70
2023-02-22T15:36:56.425Z,4.10
2023-02-22T15:39:29.675Z,4.47
2023-02-22T15:42:07.906Z,4.40
2023-02-22T15:44:40.441Z,4.60
2023-02-22T15:47:19.077Z,4.63
2023-02-22T15:49:46.250Z,4.40
2023-02-22T15:52:23.325Z,4.87
2023-02-22T15:54:51.824Z,4.60
2023-02-22T15:57:25.292Z,5.13
2023-02-22T15:59:55.890Z,4.67
2023-02-22T16:02:37.139Z,5.10
2023-02-22T16:05:09.046Z,4.77
2023-02-22T16:07:46.898Z,4.93
2023-02-22T16:10:28.757Z,4.37
2023-02-22T16:13:30.497Z,4.73
2023-02-22T16:16:03.750Z,5.10
2023-02-22T16:18:33.716Z,7.27
2023-02-22T16:21:05.674Z,5.30
2023-02-22T16:23:33.559Z,6.00
2023-02-22T16:26:26.652Z,5.00
2023-02-22T16:29:00.100Z,5.37
2023-02-22T16:31:38.605Z,4.93
2023-02-22T16:34:08.117Z,5.20
2023-02-22T16:36:46.953Z,5.30
2023-02-22T16:39:36.064Z,6.23
2023-02-22T16:42:05.039Z,5.43
2023-02-22T16:44:31.819Z,5.23
2023-02-22T16:47:00.604Z,5.97
2023-02-22T16:49:30.075Z,5.80
2023-02-22T16:52:01.610Z,6.00
2023-02-22T16:54:36.501Z,5.83
2023-02-22T16:57:04.640Z,5.70
2023-02-22T16:59:36.293Z,5.67
2023-02-22T17:02:07.471Z,9.50
2023-02-22T17:04:34.802Z,6.63
2023-02-22T17:07:05.024Z,7.67
2023-02-22T17:09:32.856Z,7.47
2023-02-22T17:12:00.247Z,7.70
2023-02-22T17:14:36.438Z,7.93
2023-02-22T17:17:03.472Z,8.10
2023-02-22T17:19:30.306Z,8.73
2023-02-22T17:21:57.128Z,8.00
2023-02-22T17:24:29.160Z,8.67
2023-02-22T17:26:57.543Z,9.43
2023-02-22T17:29:24.386Z,9.70
2023-02-22T17:31:52.877Z,10.57
2023-02-22T17:34:20.335Z,11.13
2023-02-22T17:36:47.122Z,10.60
2023-02-22T17:39:14.023Z,10.37
2023-02-22T17:41:41.032Z,9.57
2023-02-22T17:44:08.167Z,9.57
2023-02-22T17:46:36.484Z,9.53
2023-02-22T17:49:03.428Z,9.97
2023-02-22T17:51:30.452Z,9.17
2023-02-22T17:53:57.466Z,8.53
2023-02-22T17:56:24.439Z,8.63
2023-02-22T17:58:53.771Z,9.17
2023-02-22T18:01:27.997Z,9.53
2023-02-22T18:03:57.883Z,9.67
2023-02-22T18:06:28.455Z,106.07
2023-02-22T18:08:57.258Z,18.23
2023-02-22T18:11:26.455Z,75.97
2023-02-22T18:13:58.196Z,77.50
2023-02-22T18:16:26.131Z,151.10
2023-02-22T18:18:54.340Z,162.20
2023-02-22T18:21:21.723Z,62.87
2023-02-22T18:23:48.526Z,23.23
2023-02-22T18:26:17.483Z,14.13
2023-02-22T18:28:44.678Z,26.10
2023-02-22T18:31:17.251Z,15.37
2023-02-22T18:33:45.818Z,15.07
2023-02-22T18:36:14.238Z,11.73
2023-02-22T18:38:43.336Z,12.97
2023-02-22T18:41:16.352Z,11.73
2023-02-22T18:43:46.604Z,11.93
2023-02-22T18:46:18.335Z,11.80
2023-02-22T18:48:47.161Z,13.13
2023-02-22T18:51:17.530Z,14.07
2023-02-22T18:53:47.064Z,15.03
2023-02-22T18:56:21.778Z,15.20
2023-02-22T18:58:52.481Z,14.27
2023-02-22T19:01:19.408Z,14.60
2023-02-22T19:03:49.632Z,15.07
2023-02-22T19:06:18.297Z,14.53
2023-02-22T19:08:46.120Z,17.90
2023-02-22T19:11:19.286Z,16.47
2023-02-22T19:13:51.231Z,16.43
2023-02-22T19:16:20.505Z,15.47
2023-02-22T19:18:49.721Z,16.80
2023-02-22T19:21:16.823Z,16.23
2023-02-22T19:23:47.912Z,16.40
2023-02-22T19:26:20.233Z,16.27
2023-02-22T19:28:47.940Z,14.63
2023-02-22T19:31:18.317Z,14.50
2023-02-22T19:33:46.418Z,14.10
2023-02-22T19:36:14.604Z,16.60
2023-02-22T19:38:41.749Z,15.40
2023-02-22T19:41:12.317Z,14.70
2023-02-22T19:43:39.234Z,15.40
2023-02-22T19:46:07.328Z,16.53
2023-02-22T19:48:34.771Z,15.47
2023-02-22T19:51:07.212Z,15.77
2023-02-22T19:53:35.187Z,16.00
2023-02-22T19:56:09.654Z,15.37
2023-02-22T19:58:41.123Z,15.87
2023-02-22T20:01:22.818Z,16.27
2023-02-22T20:03:54.722Z,15.07
2023-02-22T20:06:26.357Z,15.97
2023-02-22T20:08:54.590Z,15.67
2023-02-22T20:11:22.838Z,16.60
2023-02-22T20:13:49.678Z,15.67
2023-02-22T20:16:16.674Z,16.10
2023-02-22T20:18:48.128Z,16.97
2023-02-22T20:21:27.655Z,15.93
2023-02-22T20:23:57.241Z,15.93
2023-02-22T20:26:25.653Z,17.33
2023-02-22T20:28:52.967Z,17.20
2023-02-22T20:31:21.286Z,19.37
2023-02-22T20:33:52.456Z,19.67
2023-02-22T20:36:22.180Z,17.60
2023-02-22T20:38:55.558Z,17.27
2023-02-22T20:41:30.983Z,16.53
2023-02-22T20:43:59.554Z,15.63
2023-02-22T20:46:28.238Z,16.30
2023-02-22T20:48:56.096Z,16.00
2023-02-22T20:51:23.017Z,16.17
2023-02-22T20:53:50.229Z,14.83
2023-02-22T20:56:19.510Z,14.13
2023-02-22T20:58:46.874Z,14.03
2023-02-22T21:01:19.575Z,14.43
2023-02-22T21:03:46.979Z,15.07
2023-02-22T21:06:17.657Z,14.60
2023-02-22T21:08:49.208Z,14.73
2023-02-22T21:11:18.281Z,15.70
2023-02-22T21:13:45.248Z,17.37
2023-02-22T21:16:29.990Z,16.50
2023-02-22T21:18:59.572Z,16.67
2023-02-22T21:21:27.586Z,16.07
2023-02-22T21:23:56.509Z,16.37
2023-02-22T21:26:27.460Z,16.53
2023-02-22T21:28:55.884Z,16.87
2023-02-22T21:31:24.743Z,17.77
2023-02-22T21:33:54.438Z,17.97
2023-02-22T21:36:25.384Z,18.13
2023-02-22T21:38:55.558Z,16.90
2023-02-22T21:41:27.360Z,16.57
2023-02-22T21:43:55.540Z,15.43
2023-02-22T21:46:22.975Z,16.67
2023-02-22T21:48:49.942Z,16.23
2023-02-22T21:51:23.303Z,16.30
2023-02-22T21:53:52.597Z,15.57
2023-02-22T21:56:24.262Z,16.77
2023-02-22T21:58:59.111Z,15.80
2023-02-22T22:01:28.482Z,15.13
2023-02-22T22:03:56.745Z,16.03
2023-02-22T22:06:23.631Z,16.63
2023-02-22T22:08:50.509Z,16.60
2023-02-22T22:11:18.031Z,14.87
2023-02-22T22:13:45.108Z,15.03
2023-02-22T22:16:18.304Z,15.50
2023-02-22T22:18:46.807Z,16.37
2023-02-22T22:21:20.561Z,14.70
2023-02-22T22:23:48.237Z,16.23
2023-02-22T22:26:17.764Z,15.80
2023-02-22T22:28:48.499Z,14.97
2023-02-22T22:31:17.456Z,15.07
2023-02-22T22:33:45.577Z,15.87
2023-02-22T22:36:14.444Z,15.53
2023-02-22T22:38:41.509Z,15.73
2023-02-22T22:41:13.198Z,14.60
2023-02-22T22:43:41.430Z,15.47
2023-02-22T22:46:08.826Z,14.23
2023-02-22T22:48:39.041Z,14.70
2023-02-22T22:51:11.815Z,15.33
2023-02-22T22:53:41.184Z,15.20
2023-02-22T22:56:17.460Z,16.03
2023-02-22T22:58:51.954Z,15.27
2023-02-22T23:01:26.848Z,15.13
2023-02-22T23:04:01.694Z,15.13
2023-02-22T23:06:32.889Z,15.47
2023-02-22T23:09:10.360Z,15.57
2023-02-22T23:11:45.434Z,15.23
2023-02-22T23:14:21.825Z,15.20
2023-02-22T23:16:50.603Z,14.87
2023-02-22T23:19:19.291Z,15.33
2023-02-22T23:21:50.210Z,14.67
2023-02-22T23:24:20.724Z,15.67
2023-02-22T23:26:50.952Z,14.37
2023-02-22T23:29:19.962Z,15.10
2023-02-22T23:31:48.604Z,16.57
2023-02-22T23:34:21.196Z,16.17
2023-02-22T23:36:48.647Z,16.33
2023-02-22T23:39:17.614Z,16.17
2023-02-22T23:41:44.373Z,16.27
2023-02-22T23:44:16.776Z,15.13
2023-02-22T23:46:48.852Z,16.13
2023-02-22T23:49:20.649Z,15.93
2023-02-22T23:51:48.554Z,16.47
2023-02-22T23:54:19.246Z,16.93
2023-02-22T23:56:53.618Z,16.50
2023-02-22T23:59:20.353Z,16.53
